aviador You're here:

KMPO Decoded Metar

MT. POCONO in PA, USA
Report Time2017-07-23 06:06:00
UTC Time2017-07-23 06:53:22
Flight Rules vfr VFR
Wind060° at 05 kt
W.Decomp.*RWY 05: 4.6 kt HW 2.0 kt RCW
RWY 13: 2.7 kt HW 4.2 kt LCW
W.Rank060° ranks 32
Current wind is below 060° avg. (6.8)
Visibility9999 m
Phenomena:N/A
Clouds:Overcast 030 Hf
Expected CloudBase > 400 ft AGL from Temp-Dew spread
Ceiling3,000 ft
Temp19°C (ISA +8)
Dew Point18°C (94% RH)
QNH1010 hPa
Density Alt3,186 ft
Elevation1,893 ft
Report Wrong Elevation
Raw Report
KMPO 230606Z AUTO 06005KT 10SM OVC030 19/18 A2982 RMK AO2
T01940183=

Extra information for KMPO:More info

Metar Taf Metar & Taf Last 4 Metars F.Rules Stats Wind Profile Meteogram Temp Stats Airport Information Weather charts Add Link Nearby VenuesMetar ALERT Operation Metar Decoded Social comments

AIRNAV info for KMPO